sensor_id;sensor_type;location;lat;lon;timestamp;temperature;humidity
22742;DHT22;11538;48.884;8.696;2023-01-16T00:01:48;6.40;99.90
22742;DHT22;11538;48.884;8.696;2023-01-16T00:04:16;6.40;99.90
22742;DHT22;11538;48.884;8.696;2023-01-16T00:06:43;6.30;99.90
22742;DHT22;11538;48.884;8.696;2023-01-16T00:09:10;6.40;99.90
22742;DHT22;11538;48.884;8.696;2023-01-16T00:11:36;6.40;99.90
22742;DHT22;11538;48.884;8.696;2023-01-16T00:14:03;6.40;99.90
22742;DHT22;11538;48.884;8.696;2023-01-16T00:16:30;6.40;99.90
22742;DHT22;11538;48.884;8.696;2023-01-16T00:19:00;6.40;99.90
22742;DHT22;11538;48.884;8.696;2023-01-16T00:21:27;6.40;99.90
22742;DHT22;11538;48.884;8.696;2023-01-16T00:23:55;6.40;99.90
22742;DHT22;11538;48.884;8.696;2023-01-16T00:26:24;6.40;99.90
22742;DHT22;11538;48.884;8.696;2023-01-16T00:28:52;6.40;99.90
22742;DHT22;11538;48.884;8.696;2023-01-16T00:31:19;6.40;99.90
22742;DHT22;11538;48.884;8.696;2023-01-16T00:33:46;6.40;99.90
22742;DHT22;11538;48.884;8.696;2023-01-16T00:36:13;6.40;99.90
22742;DHT22;11538;48.884;8.696;2023-01-16T00:38:40;6.30;99.90
22742;DHT22;11538;48.884;8.696;2023-01-16T00:41:06;6.30;99.90
22742;DHT22;11538;48.884;8.696;2023-01-16T00:43:33;6.30;99.90
22742;DHT22;11538;48.884;8.696;2023-01-16T00:46:01;6.20;99.90
22742;DHT22;11538;48.884;8.696;2023-01-16T00:48:28;6.20;99.90
22742;DHT22;11538;48.884;8.696;2023-01-16T00:50:55;6.20;99.90
22742;DHT22;11538;48.884;8.696;2023-01-16T00:53:21;6.10;99.90
22742;DHT22;11538;48.884;8.696;2023-01-16T00:55:50;6.10;99.90
22742;DHT22;11538;48.884;8.696;2023-01-16T00:58:18;6.00;99.90
22742;DHT22;11538;48.884;8.696;2023-01-16T01:01:03;6.00;99.90
22742;DHT22;11538;48.884;8.696;2023-01-16T01:03:30;6.00;99.90
22742;DHT22;11538;48.884;8.696;2023-01-16T01:05:57;5.90;99.90
22742;DHT22;11538;48.884;8.696;2023-01-16T01:08:24;5.90;99.90
22742;DHT22;11538;48.884;8.696;2023-01-16T01:10:51;5.90;99.90
22742;DHT22;11538;48.884;8.696;2023-01-16T01:13:18;5.80;99.90
22742;DHT22;11538;48.884;8.696;2023-01-16T01:15:45;5.80;99.90
22742;DHT22;11538;48.884;8.696;2023-01-16T01:18:12;5.80;99.90
22742;DHT22;11538;48.884;8.696;2023-01-16T01:20:39;5.70;99.90
22742;DHT22;11538;48.884;8.696;2023-01-16T01:23:05;5.70;99.90
22742;DHT22;11538;48.884;8.696;2023-01-16T01:25:33;5.70;99.90
22742;DHT22;11538;48.884;8.696;2023-01-16T01:28:04;5.60;99.90
22742;DHT22;11538;48.884;8.696;2023-01-16T01:30:31;5.60;99.90
22742;DHT22;11538;48.884;8.696;2023-01-16T01:32:58;5.60;99.90
22742;DHT22;11538;48.884;8.696;2023-01-16T01:35:24;5.50;99.90
22742;DHT22;11538;48.884;8.696;2023-01-16T01:37:51;5.50;99.90
22742;DHT22;11538;48.884;8.696;2023-01-16T01:40:18;5.40;99.90
22742;DHT22;11538;48.884;8.696;2023-01-16T01:42:45;5.40;99.90
22742;DHT22;11538;48.884;8.696;2023-01-16T01:50:33;5.20;99.90
22742;DHT22;11538;48.884;8.696;2023-01-16T01:53:11;5.20;99.90
22742;DHT22;11538;48.884;8.696;2023-01-16T01:55:42;5.10;99.90
22742;DHT22;11538;48.884;8.696;2023-01-16T01:58:11;5.10;99.90
22742;DHT22;11538;48.884;8.696;2023-01-16T02:00:45;5.10;99.90
22742;DHT22;11538;48.884;8.696;2023-01-16T02:03:15;5.10;99.90
22742;DHT22;11538;48.884;8.696;2023-01-16T02:05:52;5.00;99.90
22742;DHT22;11538;48.884;8.696;2023-01-16T02:08:22;5.00;99.90
22742;DHT22;11538;48.884;8.696;2023-01-16T02:10:59;5.00;99.90
22742;DHT22;11538;48.884;8.696;2023-01-16T02:13:31;5.00;99.90
22742;DHT22;11538;48.884;8.696;2023-01-16T02:15:58;5.00;99.90
22742;DHT22;11538;48.884;8.696;2023-01-16T02:18:43;5.00;99.90
22742;DHT22;11538;48.884;8.696;2023-01-16T02:21:39;5.00;99.90
22742;DHT22;11538;48.884;8.696;2023-01-16T02:37:09;5.00;99.90
22742;DHT22;11538;48.884;8.696;2023-01-16T02:42:28;5.10;99.90
22742;DHT22;11538;48.884;8.696;2023-01-16T02:44:59;5.00;99.90
22742;DHT22;11538;48.884;8.696;2023-01-16T02:55:39;5.20;99.90
22742;DHT22;11538;48.884;8.696;2023-01-16T02:58:11;5.20;99.90
22742;DHT22;11538;48.884;8.696;2023-01-16T03:00:53;5.20;99.90
22742;DHT22;11538;48.884;8.696;2023-01-16T03:03:39;5.20;99.90
22742;DHT22;11538;48.884;8.696;2023-01-16T03:08:47;5.20;99.90
22742;DHT22;11538;48.884;8.696;2023-01-16T03:11:27;5.10;99.90
22742;DHT22;11538;48.884;8.696;2023-01-16T03:22:39;5.10;99.90
22742;DHT22;11538;48.884;8.696;2023-01-16T03:25:31;5.10;99.90
22742;DHT22;11538;48.884;8.696;2023-01-16T03:28:10;5.10;99.90
22742;DHT22;11538;48.884;8.696;2023-01-16T03:36:18;5.10;99.90
22742;DHT22;11538;48.884;8.696;2023-01-16T03:38:50;5.20;99.90
22742;DHT22;11538;48.884;8.696;2023-01-16T03:41:19;5.10;99.90
22742;DHT22;11538;48.884;8.696;2023-01-16T03:43:50;5.10;99.90
22742;DHT22;11538;48.884;8.696;2023-01-16T03:46:26;5.10;99.90
22742;DHT22;11538;48.884;8.696;2023-01-16T03:49:16;5.10;99.90
22742;DHT22;11538;48.884;8.696;2023-01-16T03:51:51;5.10;99.90
22742;DHT22;11538;48.884;8.696;2023-01-16T03:57:23;5.10;99.90
22742;DHT22;11538;48.884;8.696;2023-01-16T03:59:53;5.10;99.90
22742;DHT22;11538;48.884;8.696;2023-01-16T04:02:27;5.10;99.90
22742;DHT22;11538;48.884;8.696;2023-01-16T04:05:17;5.10;99.90
22742;DHT22;11538;48.884;8.696;2023-01-16T04:07:48;5.10;99.90
22742;DHT22;11538;48.884;8.696;2023-01-16T04:10:29;5.10;99.90
22742;DHT22;11538;48.884;8.696;2023-01-16T04:13:09;5.10;99.90
22742;DHT22;11538;48.884;8.696;2023-01-16T04:15:40;5.10;99.90
22742;DHT22;11538;48.884;8.696;2023-01-16T04:18:12;5.10;99.90
22742;DHT22;11538;48.884;8.696;2023-01-16T04:20:39;5.00;99.90
22742;DHT22;11538;48.884;8.696;2023-01-16T04:23:09;5.10;99.90
22742;DHT22;11538;48.884;8.696;2023-01-16T04:25:38;5.00;99.90
22742;DHT22;11538;48.884;8.696;2023-01-16T04:28:06;5.00;99.90
22742;DHT22;11538;48.884;8.696;2023-01-16T04:30:32;5.00;99.90
22742;DHT22;11538;48.884;8.696;2023-01-16T04:33:02;5.00;99.90
22742;DHT22;11538;48.884;8.696;2023-01-16T04:35:30;5.00;99.90
22742;DHT22;11538;48.884;8.696;2023-01-16T04:37:57;5.00;99.90
22742;DHT22;11538;48.884;8.696;2023-01-16T04:40:25;5.00;99.90
22742;DHT22;11538;48.884;8.696;2023-01-16T04:42:52;4.90;99.90
22742;DHT22;11538;48.884;8.696;2023-01-16T04:45:21;5.00;99.90
22742;DHT22;11538;48.884;8.696;2023-01-16T04:47:49;4.90;99.90
22742;DHT22;11538;48.884;8.696;2023-01-16T04:50:17;4.90;99.90
22742;DHT22;11538;48.884;8.696;2023-01-16T04:52:45;4.90;99.90
22742;DHT22;11538;48.884;8.696;2023-01-16T04:55:12;4.90;99.90
22742;DHT22;11538;48.884;8.696;2023-01-16T04:57:39;4.90;99.90
22742;DHT22;11538;48.884;8.696;2023-01-16T05:00:08;4.90;99.90
22742;DHT22;11538;48.884;8.696;2023-01-16T05:02:37;4.90;99.90
22742;DHT22;11538;48.884;8.696;2023-01-16T05:05:04;4.90;99.90
22742;DHT22;11538;48.884;8.696;2023-01-16T05:07:31;4.90;99.90
22742;DHT22;11538;48.884;8.696;2023-01-16T05:09:58;4.90;99.90
22742;DHT22;11538;48.884;8.696;2023-01-16T05:12:24;4.90;99.90
22742;DHT22;11538;48.884;8.696;2023-01-16T05:14:51;4.90;99.90
22742;DHT22;11538;48.884;8.696;2023-01-16T05:17:18;4.90;99.90
22742;DHT22;11538;48.884;8.696;2023-01-16T05:19:49;5.00;99.90
22742;DHT22;11538;48.884;8.696;2023-01-16T05:22:16;4.90;99.90
22742;DHT22;11538;48.884;8.696;2023-01-16T05:24:43;4.90;99.90
22742;DHT22;11538;48.884;8.696;2023-01-16T05:27:10;4.90;99.90
22742;DHT22;11538;48.884;8.696;2023-01-16T05:29:36;4.90;99.90
22742;DHT22;11538;48.884;8.696;2023-01-16T05:32:03;4.90;99.90
22742;DHT22;11538;48.884;8.696;2023-01-16T05:34:30;4.90;99.90
22742;DHT22;11538;48.884;8.696;2023-01-16T05:36:57;4.90;99.90
22742;DHT22;11538;48.884;8.696;2023-01-16T05:39:24;4.90;99.90
22742;DHT22;11538;48.884;8.696;2023-01-16T05:41:51;4.90;99.90
22742;DHT22;11538;48.884;8.696;2023-01-16T05:44:18;4.90;99.90
22742;DHT22;11538;48.884;8.696;2023-01-16T05:46:46;4.90;99.90
22742;DHT22;11538;48.884;8.696;2023-01-16T05:49:13;4.90;99.90
22742;DHT22;11538;48.884;8.696;2023-01-16T05:51:39;4.80;99.90
22742;DHT22;11538;48.884;8.696;2023-01-16T05:54:09;4.80;99.90
22742;DHT22;11538;48.884;8.696;2023-01-16T05:56:37;4.80;99.90
22742;DHT22;11538;48.884;8.696;2023-01-16T05:59:04;4.80;99.90
22742;DHT22;11538;48.884;8.696;2023-01-16T06:01:30;4.80;99.90
22742;DHT22;11538;48.884;8.696;2023-01-16T06:03:57;4.80;99.90
22742;DHT22;11538;48.884;8.696;2023-01-16T06:06:24;4.80;99.90
22742;DHT22;11538;48.884;8.696;2023-01-16T06:08:51;4.80;99.90
22742;DHT22;11538;48.884;8.696;2023-01-16T06:11:17;4.80;99.90
22742;DHT22;11538;48.884;8.696;2023-01-16T06:13:45;4.80;99.90
22742;DHT22;11538;48.884;8.696;2023-01-16T06:16:12;4.80;99.90
22742;DHT22;11538;48.884;8.696;2023-01-16T06:18:39;4.80;99.90
22742;DHT22;11538;48.884;8.696;2023-01-16T06:21:06;4.80;99.90
22742;DHT22;11538;48.884;8.696;2023-01-16T06:23:33;4.80;99.90
22742;DHT22;11538;48.884;8.696;2023-01-16T06:26:00;4.80;99.90
22742;DHT22;11538;48.884;8.696;2023-01-16T06:28:27;4.80;99.90
22742;DHT22;11538;48.884;8.696;2023-01-16T06:30:54;4.80;99.90
22742;DHT22;11538;48.884;8.696;2023-01-16T06:33:21;4.80;99.90
22742;DHT22;11538;48.884;8.696;2023-01-16T06:35:47;4.80;99.90
22742;DHT22;11538;48.884;8.696;2023-01-16T06:38:15;4.80;99.90
22742;DHT22;11538;48.884;8.696;2023-01-16T06:40:42;4.80;99.90
22742;DHT22;11538;48.884;8.696;2023-01-16T06:43:10;4.90;99.90
22742;DHT22;11538;48.884;8.696;2023-01-16T06:45:40;4.90;99.90
22742;DHT22;11538;48.884;8.696;2023-01-16T06:48:07;4.90;99.90
22742;DHT22;11538;48.884;8.696;2023-01-16T06:50:34;4.90;99.90
22742;DHT22;11538;48.884;8.696;2023-01-16T06:53:01;4.90;99.90
22742;DHT22;11538;48.884;8.696;2023-01-16T06:55:28;4.90;99.90
22742;DHT22;11538;48.884;8.696;2023-01-16T06:57:56;4.90;99.90
22742;DHT22;11538;48.884;8.696;2023-01-16T07:00:25;4.90;99.90
22742;DHT22;11538;48.884;8.696;2023-01-16T07:02:52;4.90;99.90
22742;DHT22;11538;48.884;8.696;2023-01-16T07:05:21;4.90;99.90
22742;DHT22;11538;48.884;8.696;2023-01-16T07:07:52;4.90;99.90
22742;DHT22;11538;48.884;8.696;2023-01-16T07:10:20;4.90;99.90
22742;DHT22;11538;48.884;8.696;2023-01-16T07:12:48;4.90;99.90
22742;DHT22;11538;48.884;8.696;2023-01-16T07:15:16;4.90;99.90
22742;DHT22;11538;48.884;8.696;2023-01-16T07:18:01;4.90;99.90
22742;DHT22;11538;48.884;8.696;2023-01-16T07:20:49;4.90;99.90
22742;DHT22;11538;48.884;8.696;2023-01-16T07:23:38;4.90;99.90
22742;DHT22;11538;48.884;8.696;2023-01-16T07:26:08;4.90;99.90
22742;DHT22;11538;48.884;8.696;2023-01-16T07:28:36;5.00;99.90
22742;DHT22;11538;48.884;8.696;2023-01-16T07:31:04;4.90;99.90
22742;DHT22;11538;48.884;8.696;2023-01-16T07:33:33;4.90;99.90
22742;DHT22;11538;48.884;8.696;2023-01-16T07:36:00;4.90;99.90
22742;DHT22;11538;48.884;8.696;2023-01-16T07:38:27;4.90;99.90
22742;DHT22;11538;48.884;8.696;2023-01-16T07:40:53;4.90;99.90
22742;DHT22;11538;48.884;8.696;2023-01-16T07:43:20;4.80;99.90
22742;DHT22;11538;48.884;8.696;2023-01-16T07:45:47;4.90;99.90
22742;DHT22;11538;48.884;8.696;2023-01-16T07:48:19;4.90;99.90
22742;DHT22;11538;48.884;8.696;2023-01-16T07:50:53;4.90;99.90
22742;DHT22;11538;48.884;8.696;2023-01-16T07:53:23;4.90;99.90
22742;DHT22;11538;48.884;8.696;2023-01-16T07:55:53;4.90;99.90
22742;DHT22;11538;48.884;8.696;2023-01-16T07:58:25;5.00;99.90
22742;DHT22;11538;48.884;8.696;2023-01-16T08:00:53;5.00;99.90
22742;DHT22;11538;48.884;8.696;2023-01-16T08:03:21;5.00;99.90
22742;DHT22;11538;48.884;8.696;2023-01-16T08:05:49;5.00;99.90
22742;DHT22;11538;48.884;8.696;2023-01-16T08:08:18;5.00;99.90
22742;DHT22;11538;48.884;8.696;2023-01-16T08:10:46;5.10;99.90
22742;DHT22;11538;48.884;8.696;2023-01-16T08:13:13;5.10;99.90
22742;DHT22;11538;48.884;8.696;2023-01-16T08:15:47;5.10;99.90
22742;DHT22;11538;48.884;8.696;2023-01-16T08:18:14;5.10;99.90
22742;DHT22;11538;48.884;8.696;2023-01-16T08:20:41;5.10;99.90
22742;DHT22;11538;48.884;8.696;2023-01-16T08:23:09;5.10;99.90
22742;DHT22;11538;48.884;8.696;2023-01-16T08:25:36;5.10;99.90
22742;DHT22;11538;48.884;8.696;2023-01-16T08:28:03;5.10;99.90
22742;DHT22;11538;48.884;8.696;2023-01-16T08:30:30;5.20;99.90
22742;DHT22;11538;48.884;8.696;2023-01-16T08:32:57;5.20;99.90
22742;DHT22;11538;48.884;8.696;2023-01-16T08:35:25;5.20;99.90
22742;DHT22;11538;48.884;8.696;2023-01-16T08:37:52;5.20;99.90
22742;DHT22;11538;48.884;8.696;2023-01-16T08:40:19;5.30;99.90
22742;DHT22;11538;48.884;8.696;2023-01-16T08:42:46;5.30;99.90
22742;DHT22;11538;48.884;8.696;2023-01-16T08:45:31;5.30;99.90
22742;DHT22;11538;48.884;8.696;2023-01-16T08:48:21;5.30;99.90
22742;DHT22;11538;48.884;8.696;2023-01-16T08:51:13;5.30;99.90
22742;DHT22;11538;48.884;8.696;2023-01-16T08:53:49;5.30;99.90
22742;DHT22;11538;48.884;8.696;2023-01-16T08:56:16;5.40;99.90
22742;DHT22;11538;48.884;8.696;2023-01-16T08:58:43;5.40;99.90
22742;DHT22;11538;48.884;8.696;2023-01-16T09:01:10;5.40;99.90
22742;DHT22;11538;48.884;8.696;2023-01-16T09:03:37;5.40;99.90
22742;DHT22;11538;48.884;8.696;2023-01-16T09:06:04;5.50;99.90
22742;DHT22;11538;48.884;8.696;2023-01-16T09:08:31;5.50;99.90
22742;DHT22;11538;48.884;8.696;2023-01-16T09:10:58;5.50;99.90
22742;DHT22;11538;48.884;8.696;2023-01-16T09:13:43;5.50;99.90
22742;DHT22;11538;48.884;8.696;2023-01-16T09:16:17;5.60;99.90
22742;DHT22;11538;48.884;8.696;2023-01-16T09:18:48;5.60;99.90
22742;DHT22;11538;48.884;8.696;2023-01-16T09:21:16;5.60;99.90
22742;DHT22;11538;48.884;8.696;2023-01-16T09:23:46;5.60;99.90
22742;DHT22;11538;48.884;8.696;2023-01-16T09:26:13;5.70;99.90
22742;DHT22;11538;48.884;8.696;2023-01-16T09:28:40;5.70;99.90
22742;DHT22;11538;48.884;8.696;2023-01-16T09:31:06;5.70;99.90
22742;DHT22;11538;48.884;8.696;2023-01-16T09:33:33;5.80;99.90
22742;DHT22;11538;48.884;8.696;2023-01-16T09:36:00;5.90;99.90
22742;DHT22;11538;48.884;8.696;2023-01-16T09:38:27;5.90;99.90
22742;DHT22;11538;48.884;8.696;2023-01-16T09:40:55;5.90;99.90
22742;DHT22;11538;48.884;8.696;2023-01-16T09:43:37;6.00;99.90
22742;DHT22;11538;48.884;8.696;2023-01-16T09:46:16;5.90;99.90
22742;DHT22;11538;48.884;8.696;2023-01-16T09:48:47;6.00;99.90
22742;DHT22;11538;48.884;8.696;2023-01-16T09:51:20;6.00;99.90
22742;DHT22;11538;48.884;8.696;2023-01-16T09:54:06;6.00;99.90
22742;DHT22;11538;48.884;8.696;2023-01-16T09:57:00;6.00;99.90
22742;DHT22;11538;48.884;8.696;2023-01-16T09:59:49;6.00;99.90
22742;DHT22;11538;48.884;8.696;2023-01-16T10:02:25;6.00;99.90
22742;DHT22;11538;48.884;8.696;2023-01-16T10:04:55;6.00;99.90
22742;DHT22;11538;48.884;8.696;2023-01-16T10:10:19;6.00;99.90
22742;DHT22;11538;48.884;8.696;2023-01-16T10:16:08;6.10;99.90
22742;DHT22;11538;48.884;8.696;2023-01-16T10:19:00;6.10;99.90
22742;DHT22;11538;48.884;8.696;2023-01-16T10:29:33;6.20;99.90
22742;DHT22;11538;48.884;8.696;2023-01-16T10:32:29;6.20;99.90
22742;DHT22;11538;48.884;8.696;2023-01-16T10:35:12;6.20;99.90
22742;DHT22;11538;48.884;8.696;2023-01-16T10:37:44;6.20;99.90
22742;DHT22;11538;48.884;8.696;2023-01-16T10:42:45;6.20;99.90
22742;DHT22;11538;48.884;8.696;2023-01-16T10:45:35;6.30;99.90
22742;DHT22;11538;48.884;8.696;2023-01-16T10:48:21;6.30;99.90
22742;DHT22;11538;48.884;8.696;2023-01-16T10:51:11;6.30;99.90
22742;DHT22;11538;48.884;8.696;2023-01-16T10:53:38;6.30;99.90
22742;DHT22;11538;48.884;8.696;2023-01-16T10:56:05;6.30;99.90
22742;DHT22;11538;48.884;8.696;2023-01-16T10:58:36;6.30;99.90
22742;DHT22;11538;48.884;8.696;2023-01-16T11:01:14;6.30;99.90
22742;DHT22;11538;48.884;8.696;2023-01-16T11:03:44;6.30;99.90
22742;DHT22;11538;48.884;8.696;2023-01-16T11:06:15;6.30;99.90
22742;DHT22;11538;48.884;8.696;2023-01-16T11:08:47;6.30;99.90
22742;DHT22;11538;48.884;8.696;2023-01-16T11:11:15;6.40;99.90
22742;DHT22;11538;48.884;8.696;2023-01-16T11:14:04;6.40;99.90
22742;DHT22;11538;48.884;8.696;2023-01-16T11:16:56;6.40;99.90
22742;DHT22;11538;48.884;8.696;2023-01-16T11:19:42;6.50;99.90
22742;DHT22;11538;48.884;8.696;2023-01-16T11:22:20;6.50;99.90
22742;DHT22;11538;48.884;8.696;2023-01-16T11:24:58;6.50;99.90
22742;DHT22;11538;48.884;8.696;2023-01-16T11:27:27;6.60;99.90
22742;DHT22;11538;48.884;8.696;2023-01-16T11:29:58;6.60;99.90
22742;DHT22;11538;48.884;8.696;2023-01-16T11:32:30;6.60;99.90
22742;DHT22;11538;48.884;8.696;2023-01-16T11:35:10;6.60;99.90
22742;DHT22;11538;48.884;8.696;2023-01-16T11:37:38;6.70;99.90
22742;DHT22;11538;48.884;8.696;2023-01-16T11:40:16;6.80;99.90
22742;DHT22;11538;48.884;8.696;2023-01-16T11:42:56;6.80;99.90
22742;DHT22;11538;48.884;8.696;2023-01-16T11:45:47;6.90;99.90
22742;DHT22;11538;48.884;8.696;2023-01-16T11:48:33;6.90;99.90
22742;DHT22;11538;48.884;8.696;2023-01-16T11:51:03;6.90;99.90
22742;DHT22;11538;48.884;8.696;2023-01-16T11:53:33;6.90;99.90
22742;DHT22;11538;48.884;8.696;2023-01-16T11:56:07;6.90;99.90
22742;DHT22;11538;48.884;8.696;2023-01-16T11:58:54;6.90;99.90
22742;DHT22;11538;48.884;8.696;2023-01-16T12:01:41;6.90;99.90
22742;DHT22;11538;48.884;8.696;2023-01-16T12:10:45;7.10;99.90
22742;DHT22;11538;48.884;8.696;2023-01-16T12:13:38;7.10;99.90
22742;DHT22;11538;48.884;8.696;2023-01-16T12:17:01;7.10;99.90
22742;DHT22;11538;48.884;8.696;2023-01-16T12:23:08;7.10;99.90
22742;DHT22;11538;48.884;8.696;2023-01-16T12:29:14;7.00;99.90
22742;DHT22;11538;48.884;8.696;2023-01-16T12:32:03;7.00;99.90
22742;DHT22;11538;48.884;8.696;2023-01-16T12:40:38;7.00;99.90
22742;DHT22;11538;48.884;8.696;2023-01-16T12:45:50;7.20;99.90
22742;DHT22;11538;48.884;8.696;2023-01-16T12:56:52;7.50;99.90
22742;DHT22;11538;48.884;8.696;2023-01-16T13:00:02;7.50;99.90
22742;DHT22;11538;48.884;8.696;2023-01-16T13:02:53;7.50;99.90
22742;DHT22;11538;48.884;8.696;2023-01-16T13:05:25;7.70;99.90
22742;DHT22;11538;48.884;8.696;2023-01-16T13:10:33;7.70;99.90
22742;DHT22;11538;48.884;8.696;2023-01-16T13:13:23;7.80;99.90
22742;DHT22;11538;48.884;8.696;2023-01-16T13:15:57;7.80;99.90
22742;DHT22;11538;48.884;8.696;2023-01-16T13:18:41;7.80;99.90
22742;DHT22;11538;48.884;8.696;2023-01-16T13:21:14;7.90;99.90
22742;DHT22;11538;48.884;8.696;2023-01-16T13:23:47;7.90;99.90
22742;DHT22;11538;48.884;8.696;2023-01-16T13:26:21;7.90;99.90
22742;DHT22;11538;48.884;8.696;2023-01-16T13:28:59;8.00;99.90
22742;DHT22;11538;48.884;8.696;2023-01-16T13:31:34;7.90;99.90
22742;DHT22;11538;48.884;8.696;2023-01-16T13:39:32;7.70;99.90
22742;DHT22;11538;48.884;8.696;2023-01-16T13:42:04;7.60;99.90
22742;DHT22;11538;48.884;8.696;2023-01-16T13:44:37;7.60;99.90
22742;DHT22;11538;48.884;8.696;2023-01-16T13:47:28;7.50;99.90
22742;DHT22;11538;48.884;8.696;2023-01-16T13:50:05;7.50;99.90
22742;DHT22;11538;48.884;8.696;2023-01-16T13:52:34;7.40;99.90
22742;DHT22;11538;48.884;8.696;2023-01-16T13:55:02;7.40;99.90
22742;DHT22;11538;48.884;8.696;2023-01-16T13:57:32;7.40;99.90
22742;DHT22;11538;48.884;8.696;2023-01-16T14:00:02;7.40;99.90
22742;DHT22;11538;48.884;8.696;2023-01-16T14:02:40;7.40;99.90
22742;DHT22;11538;48.884;8.696;2023-01-16T14:10:45;7.30;99.90
22742;DHT22;11538;48.884;8.696;2023-01-16T14:13:28;7.30;99.90
22742;DHT22;11538;48.884;8.696;2023-01-16T14:19:01;7.20;99.90
22742;DHT22;11538;48.884;8.696;2023-01-16T14:21:46;7.20;99.90
22742;DHT22;11538;48.884;8.696;2023-01-16T14:24:51;7.10;99.90
22742;DHT22;11538;48.884;8.696;2023-01-16T14:27:29;7.10;99.90
22742;DHT22;11538;48.884;8.696;2023-01-16T14:30:02;7.00;99.90
22742;DHT22;11538;48.884;8.696;2023-01-16T14:32:32;6.90;99.90
22742;DHT22;11538;48.884;8.696;2023-01-16T14:35:03;6.90;99.90
22742;DHT22;11538;48.884;8.696;2023-01-16T14:37:38;6.90;99.90
22742;DHT22;11538;48.884;8.696;2023-01-16T14:45:31;6.80;99.90
22742;DHT22;11538;48.884;8.696;2023-01-16T14:53:59;6.70;99.90
22742;DHT22;11538;48.884;8.696;2023-01-16T14:57:00;6.60;99.90
22742;DHT22;11538;48.884;8.696;2023-01-16T14:59:34;6.60;99.90
22742;DHT22;11538;48.884;8.696;2023-01-16T15:02:15;6.60;99.90
22742;DHT22;11538;48.884;8.696;2023-01-16T15:05:07;6.60;99.90
22742;DHT22;11538;48.884;8.696;2023-01-16T15:07:40;6.60;99.90
22742;DHT22;11538;48.884;8.696;2023-01-16T15:10:12;6.50;99.90
22742;DHT22;11538;48.884;8.696;2023-01-16T15:12:54;6.40;99.90
22742;DHT22;11538;48.884;8.696;2023-01-16T15:15:49;6.30;99.90
22742;DHT22;11538;48.884;8.696;2023-01-16T15:18:17;6.30;99.90
22742;DHT22;11538;48.884;8.696;2023-01-16T15:21:10;6.20;99.90
22742;DHT22;11538;48.884;8.696;2023-01-16T15:24:02;6.10;99.90
22742;DHT22;11538;48.884;8.696;2023-01-16T15:29:10;6.00;99.90
22742;DHT22;11538;48.884;8.696;2023-01-16T15:31:46;6.00;99.90
22742;DHT22;11538;48.884;8.696;2023-01-16T15:34:23;5.90;99.90
22742;DHT22;11538;48.884;8.696;2023-01-16T15:36:52;5.90;99.90
22742;DHT22;11538;48.884;8.696;2023-01-16T15:39:39;5.90;99.90
22742;DHT22;11538;48.884;8.696;2023-01-16T15:42:15;5.90;99.90
22742;DHT22;11538;48.884;8.696;2023-01-16T15:45:18;5.80;99.90
22742;DHT22;11538;48.884;8.696;2023-01-16T15:51:06;5.70;99.90
22742;DHT22;11538;48.884;8.696;2023-01-16T15:53:40;5.70;99.90
22742;DHT22;11538;48.884;8.696;2023-01-16T15:58:44;5.60;99.90
22742;DHT22;11538;48.884;8.696;2023-01-16T16:01:25;5.50;99.90
22742;DHT22;11538;48.884;8.696;2023-01-16T16:03:54;5.50;99.90
22742;DHT22;11538;48.884;8.696;2023-01-16T16:06:22;5.50;99.90
22742;DHT22;11538;48.884;8.696;2023-01-16T16:08:54;5.50;99.90
22742;DHT22;11538;48.884;8.696;2023-01-16T16:11:25;5.40;99.90
22742;DHT22;11538;48.884;8.696;2023-01-16T16:14:32;5.40;99.90
22742;DHT22;11538;48.884;8.696;2023-01-16T16:17:20;5.40;99.90
22742;DHT22;11538;48.884;8.696;2023-01-16T16:20:25;5.40;99.90
22742;DHT22;11538;48.884;8.696;2023-01-16T16:25:44;5.50;99.90
22742;DHT22;11538;48.884;8.696;2023-01-16T16:28:25;5.50;99.90
22742;DHT22;11538;48.884;8.696;2023-01-16T16:33:29;5.60;99.90
22742;DHT22;11538;48.884;8.696;2023-01-16T16:36:00;5.60;99.90
22742;DHT22;11538;48.884;8.696;2023-01-16T16:38:31;5.70;99.90
22742;DHT22;11538;48.884;8.696;2023-01-16T16:44:46;5.70;99.90
22742;DHT22;11538;48.884;8.696;2023-01-16T16:47:30;5.80;99.90
22742;DHT22;11538;48.884;8.696;2023-01-16T16:49:59;5.80;99.90
22742;DHT22;11538;48.884;8.696;2023-01-16T16:52:36;5.90;99.90
22742;DHT22;11538;48.884;8.696;2023-01-16T16:57:52;5.90;99.90
22742;DHT22;11538;48.884;8.696;2023-01-16T17:00:19;6.00;99.90
22742;DHT22;11538;48.884;8.696;2023-01-16T17:02:50;6.00;99.90
22742;DHT22;11538;48.884;8.696;2023-01-16T17:05:20;6.00;99.90
22742;DHT22;11538;48.884;8.696;2023-01-16T17:07:48;6.00;99.90
22742;DHT22;11538;48.884;8.696;2023-01-16T17:10:16;6.10;99.90
22742;DHT22;11538;48.884;8.696;2023-01-16T17:12:44;6.10;99.90
22742;DHT22;11538;48.884;8.696;2023-01-16T17:15:11;6.10;99.90
22742;DHT22;11538;48.884;8.696;2023-01-16T17:17:40;6.10;99.90
22742;DHT22;11538;48.884;8.696;2023-01-16T17:20:12;6.10;99.90
22742;DHT22;11538;48.884;8.696;2023-01-16T17:22:41;6.10;99.90
22742;DHT22;11538;48.884;8.696;2023-01-16T17:25:08;6.10;99.90
22742;DHT22;11538;48.884;8.696;2023-01-16T17:27:45;6.10;99.90
22742;DHT22;11538;48.884;8.696;2023-01-16T17:30:15;6.10;99.90
22742;DHT22;11538;48.884;8.696;2023-01-16T17:32:43;6.10;99.90
22742;DHT22;11538;48.884;8.696;2023-01-16T17:35:14;6.00;99.90
22742;DHT22;11538;48.884;8.696;2023-01-16T17:37:43;5.90;99.90
22742;DHT22;11538;48.884;8.696;2023-01-16T17:40:10;5.90;99.90
22742;DHT22;11538;48.884;8.696;2023-01-16T17:42:37;5.80;99.90
22742;DHT22;11538;48.884;8.696;2023-01-16T17:45:24;5.80;99.90
22742;DHT22;11538;48.884;8.696;2023-01-16T17:48:14;5.70;99.90
22742;DHT22;11538;48.884;8.696;2023-01-16T17:50:41;5.60;99.90
22742;DHT22;11538;48.884;8.696;2023-01-16T17:53:13;5.60;99.90
22742;DHT22;11538;48.884;8.696;2023-01-16T17:55:43;5.60;99.90
22742;DHT22;11538;48.884;8.696;2023-01-16T17:58:18;5.50;99.90
22742;DHT22;11538;48.884;8.696;2023-01-16T18:00:51;5.50;99.90
22742;DHT22;11538;48.884;8.696;2023-01-16T18:03:18;5.50;99.90
22742;DHT22;11538;48.884;8.696;2023-01-16T18:05:45;5.50;99.90
22742;DHT22;11538;48.884;8.696;2023-01-16T18:08:12;5.50;99.90
22742;DHT22;11538;48.884;8.696;2023-01-16T18:10:41;5.50;99.90
22742;DHT22;11538;48.884;8.696;2023-01-16T18:13:09;5.50;99.90
22742;DHT22;11538;48.884;8.696;2023-01-16T18:15:55;5.50;99.90
22742;DHT22;11538;48.884;8.696;2023-01-16T18:18:41;5.40;99.90
22742;DHT22;11538;48.884;8.696;2023-01-16T18:21:12;5.50;99.90
22742;DHT22;11538;48.884;8.696;2023-01-16T18:24:02;5.50;99.90
22742;DHT22;11538;48.884;8.696;2023-01-16T18:26:28;5.50;99.90
22742;DHT22;11538;48.884;8.696;2023-01-16T18:28:56;5.40;99.90
22742;DHT22;11538;48.884;8.696;2023-01-16T18:31:23;5.40;99.90
22742;DHT22;11538;48.884;8.696;2023-01-16T18:33:50;5.40;99.90
22742;DHT22;11538;48.884;8.696;2023-01-16T18:36:20;5.40;99.90
22742;DHT22;11538;48.884;8.696;2023-01-16T18:38:50;5.40;99.90
22742;DHT22;11538;48.884;8.696;2023-01-16T18:41:35;5.40;99.90
22742;DHT22;11538;48.884;8.696;2023-01-16T18:44:21;5.50;99.90
22742;DHT22;11538;48.884;8.696;2023-01-16T18:47:08;5.50;99.90